sensor_id;sensor_type;location;lat;lon;timestamp;P1;durP1;ratioP1;P2;durP2;ratioP2
17864;SDS011;9058;52.018;4.202;2024-01-30T00:00:42;15.70;;;14.13;;
17864;SDS011;9058;52.018;4.202;2024-01-30T00:03:09;16.20;;;14.60;;
17864;SDS011;9058;52.018;4.202;2024-01-30T00:05:38;15.15;;;13.65;;
17864;SDS011;9058;52.018;4.202;2024-01-30T00:08:04;17.10;;;14.20;;
17864;SDS011;9058;52.018;4.202;2024-01-30T00:10:31;14.75;;;13.45;;
17864;SDS011;9058;52.018;4.202;2024-01-30T00:12:57;14.68;;;13.18;;
17864;SDS011;9058;52.018;4.202;2024-01-30T00:15:24;16.27;;;14.70;;
17864;SDS011;9058;52.018;4.202;2024-01-30T00:17:51;15.45;;;13.45;;
17864;SDS011;9058;52.018;4.202;2024-01-30T00:20:18;15.95;;;14.40;;
17864;SDS011;9058;52.018;4.202;2024-01-30T00:22:45;16.20;;;14.38;;
17864;SDS011;9058;52.018;4.202;2024-01-30T00:25:13;15.23;;;13.63;;
17864;SDS011;9058;52.018;4.202;2024-01-30T00:27:39;14.63;;;13.13;;
17864;SDS011;9058;52.018;4.202;2024-01-30T00:30:06;14.55;;;13.07;;
17864;SDS011;9058;52.018;4.202;2024-01-30T00:32:34;14.98;;;13.48;;
17864;SDS011;9058;52.018;4.202;2024-01-30T00:35:00;14.27;;;12.98;;
17864;SDS011;9058;52.018;4.202;2024-01-30T00:37:26;16.33;;;14.70;;
17864;SDS011;9058;52.018;4.202;2024-01-30T00:39:54;14.88;;;13.35;;
17864;SDS011;9058;52.018;4.202;2024-01-30T00:42:20;16.05;;;14.40;;
17864;SDS011;9058;52.018;4.202;2024-01-30T00:44:48;14.63;;;13.10;;
17864;SDS011;9058;52.018;4.202;2024-01-30T00:47:16;14.75;;;13.20;;
17864;SDS011;9058;52.018;4.202;2024-01-30T00:49:43;14.60;;;12.73;;
17864;SDS011;9058;52.018;4.202;2024-01-30T00:52:10;15.75;;;14.25;;
17864;SDS011;9058;52.018;4.202;2024-01-30T00:54:36;14.52;;;13.25;;
17864;SDS011;9058;52.018;4.202;2024-01-30T00:57:05;14.23;;;12.90;;
17864;SDS011;9058;52.018;4.202;2024-01-30T00:59:31;14.27;;;12.93;;
17864;SDS011;9058;52.018;4.202;2024-01-30T01:01:58;14.57;;;13.07;;
17864;SDS011;9058;52.018;4.202;2024-01-30T01:04:24;13.65;;;12.20;;
17864;SDS011;9058;52.018;4.202;2024-01-30T01:06:51;13.98;;;12.55;;
17864;SDS011;9058;52.018;4.202;2024-01-30T01:09:18;13.80;;;12.40;;
17864;SDS011;9058;52.018;4.202;2024-01-30T01:11:43;13.25;;;11.93;;
17864;SDS011;9058;52.018;4.202;2024-01-30T01:14:12;13.55;;;12.30;;
17864;SDS011;9058;52.018;4.202;2024-01-30T01:16:38;14.77;;;13.27;;
17864;SDS011;9058;52.018;4.202;2024-01-30T01:19:06;13.50;;;12.20;;
17864;SDS011;9058;52.018;4.202;2024-01-30T01:21:32;14.07;;;12.77;;
17864;SDS011;9058;52.018;4.202;2024-01-30T01:23:59;12.85;;;11.77;;
17864;SDS011;9058;52.018;4.202;2024-01-30T01:26:25;13.98;;;12.57;;
17864;SDS011;9058;52.018;4.202;2024-01-30T01:28:52;13.35;;;12.05;;
17864;SDS011;9058;52.018;4.202;2024-01-30T01:31:19;13.55;;;11.77;;
17864;SDS011;9058;52.018;4.202;2024-01-30T01:33:49;13.15;;;11.95;;
17864;SDS011;9058;52.018;4.202;2024-01-30T01:36:16;13.88;;;12.48;;
17864;SDS011;9058;52.018;4.202;2024-01-30T01:38:42;13.90;;;12.45;;
17864;SDS011;9058;52.018;4.202;2024-01-30T01:41:08;13.07;;;11.70;;
17864;SDS011;9058;52.018;4.202;2024-01-30T01:43:36;15.27;;;12.98;;
17864;SDS011;9058;52.018;4.202;2024-01-30T01:46:03;14.23;;;12.93;;
17864;SDS011;9058;52.018;4.202;2024-01-30T01:48:31;13.88;;;12.55;;
17864;SDS011;9058;52.018;4.202;2024-01-30T01:50:57;14.77;;;12.75;;
17864;SDS011;9058;52.018;4.202;2024-01-30T01:53:24;13.02;;;11.82;;
17864;SDS011;9058;52.018;4.202;2024-01-30T01:55:51;13.60;;;12.50;;
17864;SDS011;9058;52.018;4.202;2024-01-30T01:58:19;14.10;;;12.27;;
17864;SDS011;9058;52.018;4.202;2024-01-30T02:00:45;13.27;;;12.07;;
17864;SDS011;9058;52.018;4.202;2024-01-30T02:03:12;12.90;;;11.63;;
17864;SDS011;9058;52.018;4.202;2024-01-30T02:05:41;13.43;;;12.18;;
17864;SDS011;9058;52.018;4.202;2024-01-30T02:08:08;13.82;;;12.48;;
17864;SDS011;9058;52.018;4.202;2024-01-30T02:10:37;13.40;;;12.20;;
17864;SDS011;9058;52.018;4.202;2024-01-30T02:13:03;12.75;;;11.55;;
17864;SDS011;9058;52.018;4.202;2024-01-30T02:15:30;14.60;;;13.20;;
17864;SDS011;9058;52.018;4.202;2024-01-30T02:17:56;13.48;;;12.20;;
17864;SDS011;9058;52.018;4.202;2024-01-30T02:20:23;14.30;;;12.88;;
17864;SDS011;9058;52.018;4.202;2024-01-30T02:22:52;13.68;;;12.30;;
17864;SDS011;9058;52.018;4.202;2024-01-30T02:25:18;13.23;;;11.90;;
17864;SDS011;9058;52.018;4.202;2024-01-30T02:27:45;13.63;;;12.20;;
17864;SDS011;9058;52.018;4.202;2024-01-30T02:30:11;14.10;;;12.75;;
17864;SDS011;9058;52.018;4.202;2024-01-30T02:32:38;13.80;;;12.32;;
17864;SDS011;9058;52.018;4.202;2024-01-30T02:35:04;15.15;;;13.68;;
17864;SDS011;9058;52.018;4.202;2024-01-30T02:37:31;14.20;;;12.85;;
17864;SDS011;9058;52.018;4.202;2024-01-30T02:39:58;13.13;;;11.98;;
17864;SDS011;9058;52.018;4.202;2024-01-30T02:42:25;13.27;;;12.07;;
17864;SDS011;9058;52.018;4.202;2024-01-30T02:44:51;14.50;;;13.10;;
17864;SDS011;9058;52.018;4.202;2024-01-30T02:47:18;13.73;;;12.63;;
17864;SDS011;9058;52.018;4.202;2024-01-30T02:49:44;14.43;;;13.13;;
17864;SDS011;9058;52.018;4.202;2024-01-30T02:52:11;17.00;;;13.23;;
17864;SDS011;9058;52.018;4.202;2024-01-30T02:54:37;14.27;;;13.02;;
17864;SDS011;9058;52.018;4.202;2024-01-30T02:57:05;14.30;;;13.02;;
17864;SDS011;9058;52.018;4.202;2024-01-30T02:59:31;15.38;;;13.98;;
17864;SDS011;9058;52.018;4.202;2024-01-30T03:02:01;12.73;;;11.63;;
17864;SDS011;9058;52.018;4.202;2024-01-30T03:04:27;21.05;;;14.15;;
17864;SDS011;9058;52.018;4.202;2024-01-30T03:06:55;14.75;;;13.00;;
17864;SDS011;9058;52.018;4.202;2024-01-30T03:09:21;14.27;;;12.98;;
17864;SDS011;9058;52.018;4.202;2024-01-30T03:11:47;13.73;;;12.57;;
17864;SDS011;9058;52.018;4.202;2024-01-30T03:14:14;14.43;;;12.40;;
17864;SDS011;9058;52.018;4.202;2024-01-30T03:16:41;14.43;;;13.18;;
17864;SDS011;9058;52.018;4.202;2024-01-30T03:19:07;13.80;;;12.38;;
17864;SDS011;9058;52.018;4.202;2024-01-30T03:21:34;13.70;;;12.30;;
17864;SDS011;9058;52.018;4.202;2024-01-30T03:24:00;12.85;;;11.70;;
17864;SDS011;9058;52.018;4.202;2024-01-30T03:26:28;14.05;;;12.52;;
17864;SDS011;9058;52.018;4.202;2024-01-30T03:28:54;13.27;;;11.63;;
17864;SDS011;9058;52.018;4.202;2024-01-30T03:31:25;15.35;;;13.85;;
17864;SDS011;9058;52.018;4.202;2024-01-30T03:33:51;13.45;;;12.10;;
17864;SDS011;9058;52.018;4.202;2024-01-30T03:36:18;13.02;;;11.65;;
17864;SDS011;9058;52.018;4.202;2024-01-30T03:38:44;14.13;;;12.80;;
17864;SDS011;9058;52.018;4.202;2024-01-30T03:41:12;13.50;;;12.15;;
17864;SDS011;9058;52.018;4.202;2024-01-30T03:43:38;14.57;;;13.13;;
17864;SDS011;9058;52.018;4.202;2024-01-30T03:46:05;13.82;;;12.50;;
17864;SDS011;9058;52.018;4.202;2024-01-30T03:48:33;13.80;;;12.60;;
17864;SDS011;9058;52.018;4.202;2024-01-30T03:50:59;13.95;;;12.65;;
17864;SDS011;9058;52.018;4.202;2024-01-30T03:53:27;15.25;;;13.80;;
17864;SDS011;9058;52.018;4.202;2024-01-30T03:55:53;12.70;;;11.35;;
17864;SDS011;9058;52.018;4.202;2024-01-30T03:58:20;14.80;;;12.95;;
17864;SDS011;9058;52.018;4.202;2024-01-30T04:00:46;13.80;;;12.57;;
17864;SDS011;9058;52.018;4.202;2024-01-30T04:03:14;14.27;;;12.88;;
17864;SDS011;9058;52.018;4.202;2024-01-30T04:05:41;14.02;;;12.73;;
17864;SDS011;9058;52.018;4.202;2024-01-30T04:08:08;13.13;;;11.80;;
17864;SDS011;9058;52.018;4.202;2024-01-30T04:10:34;13.88;;;12.63;;
17864;SDS011;9058;52.018;4.202;2024-01-30T04:13:02;13.32;;;12.13;;
17864;SDS011;9058;52.018;4.202;2024-01-30T04:15:28;14.48;;;13.15;;
17864;SDS011;9058;52.018;4.202;2024-01-30T04:17:57;12.77;;;11.57;;
17864;SDS011;9058;52.018;4.202;2024-01-30T04:20:23;14.68;;;13.27;;
17864;SDS011;9058;52.018;4.202;2024-01-30T04:22:52;13.60;;;12.27;;
17864;SDS011;9058;52.018;4.202;2024-01-30T04:25:19;14.88;;;13.68;;
17864;SDS011;9058;52.018;4.202;2024-01-30T04:27:45;13.75;;;12.57;;
17864;SDS011;9058;52.018;4.202;2024-01-30T04:30:11;13.25;;;12.05;;
17864;SDS011;9058;52.018;4.202;2024-01-30T04:32:38;16.50;;;13.07;;
17864;SDS011;9058;52.018;4.202;2024-01-30T04:35:04;14.98;;;13.68;;
17864;SDS011;9058;52.018;4.202;2024-01-30T04:37:31;13.20;;;11.98;;
17864;SDS011;9058;52.018;4.202;2024-01-30T04:40:00;13.50;;;12.25;;
17864;SDS011;9058;52.018;4.202;2024-01-30T04:42:26;13.10;;;11.88;;
17864;SDS011;9058;52.018;4.202;2024-01-30T04:44:52;14.77;;;13.45;;
17864;SDS011;9058;52.018;4.202;2024-01-30T04:47:19;14.18;;;12.82;;
17864;SDS011;9058;52.018;4.202;2024-01-30T04:49:45;14.40;;;12.88;;
17864;SDS011;9058;52.018;4.202;2024-01-30T04:52:11;13.80;;;12.50;;
17864;SDS011;9058;52.018;4.202;2024-01-30T04:54:38;13.48;;;12.18;;
17864;SDS011;9058;52.018;4.202;2024-01-30T04:57:07;13.85;;;12.43;;
17864;SDS011;9058;52.018;4.202;2024-01-30T04:59:36;15.07;;;13.48;;
17864;SDS011;9058;52.018;4.202;2024-01-30T05:02:03;13.50;;;12.05;;
17864;SDS011;9058;52.018;4.202;2024-01-30T05:04:29;15.35;;;12.75;;
17864;SDS011;9058;52.018;4.202;2024-01-30T05:06:55;13.18;;;11.90;;
17864;SDS011;9058;52.018;4.202;2024-01-30T05:09:22;12.95;;;11.75;;
17864;SDS011;9058;52.018;4.202;2024-01-30T05:11:48;12.65;;;11.55;;
17864;SDS011;9058;52.018;4.202;2024-01-30T05:14:16;12.63;;;11.43;;
17864;SDS011;9058;52.018;4.202;2024-01-30T05:16:43;13.10;;;11.77;;
17864;SDS011;9058;52.018;4.202;2024-01-30T05:19:11;12.55;;;11.45;;
17864;SDS011;9058;52.018;4.202;2024-01-30T05:21:39;13.43;;;12.13;;
17864;SDS011;9058;52.018;4.202;2024-01-30T05:24:05;13.60;;;11.52;;
17864;SDS011;9058;52.018;4.202;2024-01-30T05:26:31;15.23;;;11.57;;
17864;SDS011;9058;52.018;4.202;2024-01-30T05:28:57;13.02;;;11.88;;
17864;SDS011;9058;52.018;4.202;2024-01-30T05:31:26;13.07;;;11.77;;
17864;SDS011;9058;52.018;4.202;2024-01-30T05:33:53;13.27;;;11.88;;
17864;SDS011;9058;52.018;4.202;2024-01-30T05:36:21;13.30;;;12.10;;
17864;SDS011;9058;52.018;4.202;2024-01-30T05:38:47;13.88;;;12.52;;
17864;SDS011;9058;52.018;4.202;2024-01-30T05:41:14;13.57;;;11.70;;
17864;SDS011;9058;52.018;4.202;2024-01-30T05:43:41;13.55;;;11.63;;
17864;SDS011;9058;52.018;4.202;2024-01-30T05:46:09;12.75;;;11.48;;
17864;SDS011;9058;52.018;4.202;2024-01-30T05:48:37;12.77;;;11.45;;
17864;SDS011;9058;52.018;4.202;2024-01-30T05:51:02;13.18;;;11.02;;
17864;SDS011;9058;52.018;4.202;2024-01-30T05:53:29;13.50;;;12.07;;
17864;SDS011;9058;52.018;4.202;2024-01-30T05:55:55;13.25;;;11.85;;
17864;SDS011;9058;52.018;4.202;2024-01-30T05:58:22;13.52;;;12.13;;
17864;SDS011;9058;52.018;4.202;2024-01-30T06:00:48;14.48;;;12.98;;
17864;SDS011;9058;52.018;4.202;2024-01-30T06:03:14;13.23;;;11.93;;
17864;SDS011;9058;52.018;4.202;2024-01-30T06:05:42;15.50;;;11.40;;
17864;SDS011;9058;52.018;4.202;2024-01-30T06:08:08;13.90;;;11.15;;
17864;SDS011;9058;52.018;4.202;2024-01-30T06:10:35;14.07;;;12.02;;
17864;SDS011;9058;52.018;4.202;2024-01-30T06:13:01;12.77;;;10.90;;
17864;SDS011;9058;52.018;4.202;2024-01-30T06:15:29;12.48;;;11.15;;
17864;SDS011;9058;52.018;4.202;2024-01-30T06:17:57;12.68;;;11.50;;
17864;SDS011;9058;52.018;4.202;2024-01-30T06:20:24;12.73;;;11.45;;
17864;SDS011;9058;52.018;4.202;2024-01-30T06:22:52;12.93;;;11.55;;
17864;SDS011;9058;52.018;4.202;2024-01-30T06:25:18;13.20;;;11.60;;
17864;SDS011;9058;52.018;4.202;2024-01-30T06:27:44;13.77;;;12.48;;
17864;SDS011;9058;52.018;4.202;2024-01-30T06:30:11;14.82;;;12.25;;
17864;SDS011;9058;52.018;4.202;2024-01-30T06:32:38;13.50;;;12.02;;
17864;SDS011;9058;52.018;4.202;2024-01-30T06:35:05;13.75;;;12.30;;
17864;SDS011;9058;52.018;4.202;2024-01-30T06:37:31;15.15;;;12.68;;
17864;SDS011;9058;52.018;4.202;2024-01-30T06:39:59;14.93;;;11.98;;
17864;SDS011;9058;52.018;4.202;2024-01-30T06:42:25;15.13;;;12.30;;
17864;SDS011;9058;52.018;4.202;2024-01-30T06:44:51;14.07;;;12.68;;
17864;SDS011;9058;52.018;4.202;2024-01-30T06:47:18;12.25;;;11.15;;
17864;SDS011;9058;52.018;4.202;2024-01-30T06:49:44;13.07;;;11.07;;
17864;SDS011;9058;52.018;4.202;2024-01-30T06:52:12;12.60;;;11.30;;
17864;SDS011;9058;52.018;4.202;2024-01-30T06:54:39;14.15;;;11.65;;
17864;SDS011;9058;52.018;4.202;2024-01-30T06:57:07;14.18;;;12.88;;
17864;SDS011;9058;52.018;4.202;2024-01-30T06:59:36;13.48;;;10.63;;
17864;SDS011;9058;52.018;4.202;2024-01-30T07:02:06;13.77;;;11.95;;
17864;SDS011;9058;52.018;4.202;2024-01-30T07:04:33;12.82;;;11.55;;
17864;SDS011;9058;52.018;4.202;2024-01-30T07:06:59;14.05;;;12.75;;
17864;SDS011;9058;52.018;4.202;2024-01-30T07:09:26;17.30;;;13.25;;
17864;SDS011;9058;52.018;4.202;2024-01-30T07:11:53;12.82;;;11.55;;
17864;SDS011;9058;52.018;4.202;2024-01-30T07:14:21;13.52;;;12.20;;
17864;SDS011;9058;52.018;4.202;2024-01-30T07:16:48;14.95;;;12.70;;
17864;SDS011;9058;52.018;4.202;2024-01-30T07:19:15;15.75;;;12.65;;
17864;SDS011;9058;52.018;4.202;2024-01-30T07:21:41;13.38;;;11.90;;
17864;SDS011;9058;52.018;4.202;2024-01-30T07:24:08;14.50;;;11.68;;
17864;SDS011;9058;52.018;4.202;2024-01-30T07:26:34;14.00;;;12.60;;
17864;SDS011;9058;52.018;4.202;2024-01-30T07:29:01;12.77;;;11.35;;
17864;SDS011;9058;52.018;4.202;2024-01-30T07:31:29;12.88;;;11.40;;
17864;SDS011;9058;52.018;4.202;2024-01-30T07:33:56;16.58;;;13.15;;
17864;SDS011;9058;52.018;4.202;2024-01-30T07:36:22;14.48;;;12.82;;
17864;SDS011;9058;52.018;4.202;2024-01-30T07:38:49;16.75;;;13.18;;
17864;SDS011;9058;52.018;4.202;2024-01-30T07:41:15;14.25;;;12.85;;
17864;SDS011;9058;52.018;4.202;2024-01-30T07:43:42;11.95;;;10.70;;
17864;SDS011;9058;52.018;4.202;2024-01-30T07:46:09;15.18;;;12.52;;
17864;SDS011;9058;52.018;4.202;2024-01-30T07:48:37;15.68;;;13.45;;
17864;SDS011;9058;52.018;4.202;2024-01-30T07:51:04;18.50;;;12.80;;
17864;SDS011;9058;52.018;4.202;2024-01-30T07:53:30;20.95;;;13.05;;
17864;SDS011;9058;52.018;4.202;2024-01-30T07:55:57;16.52;;;11.75;;
17864;SDS011;9058;52.018;4.202;2024-01-30T07:58:24;16.55;;;12.27;;
17864;SDS011;9058;52.018;4.202;2024-01-30T08:00:52;16.52;;;12.45;;
17864;SDS011;9058;52.018;4.202;2024-01-30T08:03:19;14.98;;;12.90;;
17864;SDS011;9058;52.018;4.202;2024-01-30T08:05:46;15.55;;;13.18;;
17864;SDS011;9058;52.018;4.202;2024-01-30T08:08:13;15.88;;;13.27;;
17864;SDS011;9058;52.018;4.202;2024-01-30T08:10:40;17.98;;;13.60;;
17864;SDS011;9058;52.018;4.202;2024-01-30T08:13:06;20.67;;;14.27;;
17864;SDS011;9058;52.018;4.202;2024-01-30T08:15:34;15.82;;;13.25;;
17864;SDS011;9058;52.018;4.202;2024-01-30T08:18:00;15.77;;;13.35;;
17864;SDS011;9058;52.018;4.202;2024-01-30T08:20:26;19.27;;;14.75;;
17864;SDS011;9058;52.018;4.202;2024-01-30T08:22:54;14.75;;;13.20;;
17864;SDS011;9058;52.018;4.202;2024-01-30T08:25:21;16.75;;;13.27;;
17864;SDS011;9058;52.018;4.202;2024-01-30T08:27:47;16.67;;;13.98;;
17864;SDS011;9058;52.018;4.202;2024-01-30T08:30:14;19.55;;;15.40;;
17864;SDS011;9058;52.018;4.202;2024-01-30T08:32:41;16.13;;;14.07;;
17864;SDS011;9058;52.018;4.202;2024-01-30T08:35:07;25.75;;;16.90;;
17864;SDS011;9058;52.018;4.202;2024-01-30T08:40:41;15.25;;;13.13;;
17864;SDS011;9058;52.018;4.202;2024-01-30T08:44:07;20.92;;;14.30;;
17864;SDS011;9058;52.018;4.202;2024-01-30T08:46:25;19.30;;;13.27;;
17864;SDS011;9058;52.018;4.202;2024-01-30T08:48:52;13.63;;;11.18;;
17864;SDS011;9058;52.018;4.202;2024-01-30T08:51:18;12.52;;;9.65;;
17864;SDS011;9058;52.018;4.202;2024-01-30T08:53:44;12.90;;;8.90;;
17864;SDS011;9058;52.018;4.202;2024-01-30T08:56:12;14.48;;;9.10;;
17864;SDS011;9058;52.018;4.202;2024-01-30T08:58:39;14.02;;;7.57;;
17864;SDS011;9058;52.018;4.202;2024-01-30T09:01:06;17.70;;;8.48;;
17864;SDS011;9058;52.018;4.202;2024-01-30T09:03:32;8.50;;;5.40;;
17864;SDS011;9058;52.018;4.202;2024-01-30T09:05:59;11.93;;;6.07;;
17864;SDS011;9058;52.018;4.202;2024-01-30T09:08:25;10.95;;;5.13;;
17864;SDS011;9058;52.018;4.202;2024-01-30T09:10:51;10.13;;;6.47;;
17864;SDS011;9058;52.018;4.202;2024-01-30T09:13:19;9.35;;;6.47;;
17864;SDS011;9058;52.018;4.202;2024-01-30T09:15:46;8.40;;;5.03;;
17864;SDS011;9058;52.018;4.202;2024-01-30T09:18:12;6.03;;;5.28;;
17864;SDS011;9058;52.018;4.202;2024-01-30T09:20:38;10.00;;;6.13;;
17864;SDS011;9058;52.018;4.202;2024-01-30T09:23:05;12.18;;;7.00;;
17864;SDS011;9058;52.018;4.202;2024-01-30T09:25:30;6.30;;;5.60;;
17864;SDS011;9058;52.018;4.202;2024-01-30T09:27:56;12.25;;;5.63;;
17864;SDS011;9058;52.018;4.202;2024-01-30T09:30:27;12.60;;;5.38;;
17864;SDS011;9058;52.018;4.202;2024-01-30T09:32:53;10.77;;;5.72;;
17864;SDS011;9058;52.018;4.202;2024-01-30T09:35:19;17.13;;;7.05;;
17864;SDS011;9058;52.018;4.202;2024-01-30T09:37:46;10.68;;;5.53;;
17864;SDS011;9058;52.018;4.202;2024-01-30T09:40:13;9.90;;;5.15;;
17864;SDS011;9058;52.018;4.202;2024-01-30T09:42:43;6.18;;;4.68;;
17864;SDS011;9058;52.018;4.202;2024-01-30T09:45:10;9.82;;;4.50;;
17864;SDS011;9058;52.018;4.202;2024-01-30T09:47:41;9.80;;;4.95;;
17864;SDS011;9058;52.018;4.202;2024-01-30T09:50:08;10.35;;;4.57;;
17864;SDS011;9058;52.018;4.202;2024-01-30T09:52:35;5.95;;;4.85;;
17864;SDS011;9058;52.018;4.202;2024-01-30T09:55:02;8.68;;;4.25;;
17864;SDS011;9058;52.018;4.202;2024-01-30T09:57:28;5.57;;;3.92;;
17864;SDS011;9058;52.018;4.202;2024-01-30T09:59:55;6.93;;;4.70;;
17864;SDS011;9058;52.018;4.202;2024-01-30T10:02:21;5.38;;;4.35;;
17864;SDS011;9058;52.018;4.202;2024-01-30T10:04:50;7.82;;;4.55;;
17864;SDS011;9058;52.018;4.202;2024-01-30T10:07:17;6.45;;;4.65;;
17864;SDS011;9058;52.018;4.202;2024-01-30T10:09:43;9.15;;;4.53;;
17864;SDS011;9058;52.018;4.202;2024-01-30T10:12:10;12.63;;;5.30;;
17864;SDS011;9058;52.018;4.202;2024-01-30T10:14:37;11.02;;;5.15;;
17864;SDS011;9058;52.018;4.202;2024-01-30T10:17:04;5.65;;;4.15;;
17864;SDS011;9058;52.018;4.202;2024-01-30T10:19:31;6.82;;;4.50;;
17864;SDS011;9058;52.018;4.202;2024-01-30T10:21:58;8.95;;;4.25;;
17864;SDS011;9058;52.018;4.202;2024-01-30T10:24:26;7.63;;;4.95;;
17864;SDS011;9058;52.018;4.202;2024-01-30T10:26:54;6.35;;;4.13;;
17864;SDS011;9058;52.018;4.202;2024-01-30T10:29:20;9.80;;;4.53;;
17864;SDS011;9058;52.018;4.202;2024-01-30T10:31:57;9.13;;;5.40;;
17864;SDS011;9058;52.018;4.202;2024-01-30T10:34:23;7.60;;;5.65;;
17864;SDS011;9058;52.018;4.202;2024-01-30T10:36:50;7.55;;;5.30;;
17864;SDS011;9058;52.018;4.202;2024-01-30T10:39:18;7.22;;;5.22;;
17864;SDS011;9058;52.018;4.202;2024-01-30T10:41:47;10.18;;;5.05;;
17864;SDS011;9058;52.018;4.202;2024-01-30T10:44:18;11.13;;;6.72;;
17864;SDS011;9058;52.018;4.202;2024-01-30T10:46:45;9.65;;;4.78;;
17864;SDS011;9058;52.018;4.202;2024-01-30T10:49:14;10.90;;;5.47;;
17864;SDS011;9058;52.018;4.202;2024-01-30T10:51:41;11.02;;;4.93;;
17864;SDS011;9058;52.018;4.202;2024-01-30T10:54:08;9.02;;;5.38;;
17864;SDS011;9058;52.018;4.202;2024-01-30T10:56:37;13.10;;;4.40;;
17864;SDS011;9058;52.018;4.202;2024-01-30T10:59:04;9.02;;;5.00;;
17864;SDS011;9058;52.018;4.202;2024-01-30T11:01:31;12.00;;;4.10;;
17864;SDS011;9058;52.018;4.202;2024-01-30T11:03:58;8.52;;;3.92;;
17864;SDS011;9058;52.018;4.202;2024-01-30T11:06:25;8.32;;;3.95;;
17864;SDS011;9058;52.018;4.202;2024-01-30T11:09:00;7.60;;;4.13;;
17864;SDS011;9058;52.018;4.202;2024-01-30T11:11:27;10.93;;;4.57;;
17864;SDS011;9058;52.018;4.202;2024-01-30T11:13:55;11.45;;;4.32;;
17864;SDS011;9058;52.018;4.202;2024-01-30T11:16:30;8.32;;;4.10;;
17864;SDS011;9058;52.018;4.202;2024-01-30T11:18:59;10.43;;;4.88;;
17864;SDS011;9058;52.018;4.202;2024-01-30T11:21:25;7.95;;;4.43;;
17864;SDS011;9058;52.018;4.202;2024-01-30T11:23:52;9.75;;;5.15;;
17864;SDS011;9058;52.018;4.202;2024-01-30T11:26:18;11.02;;;4.28;;
17864;SDS011;9058;52.018;4.202;2024-01-30T11:28:52;9.27;;;4.60;;
17864;SDS011;9058;52.018;4.202;2024-01-30T11:31:20;10.00;;;4.95;;
17864;SDS011;9058;52.018;4.202;2024-01-30T11:33:46;9.55;;;4.47;;
17864;SDS011;9058;52.018;4.202;2024-01-30T11:36:19;14.55;;;5.38;;
17864;SDS011;9058;52.018;4.202;2024-01-30T11:38:47;9.27;;;5.18;;
17864;SDS011;9058;52.018;4.202;2024-01-30T11:41:13;13.63;;;5.55;;
17864;SDS011;9058;52.018;4.202;2024-01-30T11:43:40;9.68;;;5.30;;
17864;SDS011;9058;52.018;4.202;2024-01-30T11:46:07;9.75;;;4.55;;
17864;SDS011;9058;52.018;4.202;2024-01-30T11:48:36;13.43;;;5.18;;
17864;SDS011;9058;52.018;4.202;2024-01-30T11:51:03;14.70;;;4.80;;
17864;SDS011;9058;52.018;4.202;2024-01-30T11:53:30;14.57;;;6.10;;
17864;SDS011;9058;52.018;4.202;2024-01-30T11:55:57;9.05;;;5.45;;
17864;SDS011;9058;52.018;4.202;2024-01-30T11:58:24;11.18;;;5.38;;
17864;SDS011;9058;52.018;4.202;2024-01-30T12:00:54;13.57;;;5.10;;
17864;SDS011;9058;52.018;4.202;2024-01-30T12:03:21;10.77;;;5.13;;
17864;SDS011;9058;52.018;4.202;2024-01-30T12:05:48;9.88;;;6.00;;
17864;SDS011;9058;52.018;4.202;2024-01-30T12:08:21;11.88;;;5.30;;
17864;SDS011;9058;52.018;4.202;2024-01-30T12:10:54;14.57;;;4.93;;
17864;SDS011;9058;52.018;4.202;2024-01-30T12:13:21;19.38;;;5.80;;
17864;SDS011;9058;52.018;4.202;2024-01-30T12:15:48;14.30;;;6.03;;
17864;SDS011;9058;52.018;4.202;2024-01-30T12:18:18;10.38;;;5.43;;
17864;SDS011;9058;52.018;4.202;2024-01-30T12:20:44;18.17;;;6.22;;
17864;SDS011;9058;52.018;4.202;2024-01-30T12:23:12;20.80;;;5.80;;
17864;SDS011;9058;52.018;4.202;2024-01-30T12:25:39;13.10;;;6.03;;
17864;SDS011;9058;52.018;4.202;2024-01-30T12:28:06;12.70;;;5.72;;
17864;SDS011;9058;52.018;4.202;2024-01-30T12:30:34;13.27;;;5.72;;
17864;SDS011;9058;52.018;4.202;2024-01-30T12:33:00;13.05;;;6.20;;
17864;SDS011;9058;52.018;4.202;2024-01-30T12:35:30;11.65;;;6.50;;
17864;SDS011;9058;52.018;4.202;2024-01-30T12:37:57;19.77;;;5.78;;
17864;SDS011;9058;52.018;4.202;2024-01-30T12:40:24;11.68;;;5.82;;
17864;SDS011;9058;52.018;4.202;2024-01-30T12:42:51;17.15;;;5.72;;
17864;SDS011;9058;52.018;4.202;2024-01-30T12:45:18;11.65;;;5.88;;
17864;SDS011;9058;52.018;4.202;2024-01-30T12:47:47;7.40;;;4.50;;
17864;SDS011;9058;52.018;4.202;2024-01-30T12:50:13;11.45;;;5.45;;
17864;SDS011;9058;52.018;4.202;2024-01-30T12:52:40;10.63;;;5.90;;
17864;SDS011;9058;52.018;4.202;2024-01-30T12:55:07;10.88;;;5.68;;
17864;SDS011;9058;52.018;4.202;2024-01-30T12:57:35;10.18;;;5.63;;
17864;SDS011;9058;52.018;4.202;2024-01-30T13:00:01;9.88;;;5.38;;
17864;SDS011;9058;52.018;4.202;2024-01-30T13:02:29;8.95;;;6.25;;
17864;SDS011;9058;52.018;4.202;2024-01-30T13:05:00;11.50;;;5.50;;
17864;SDS011;9058;52.018;4.202;2024-01-30T13:07:26;10.13;;;5.85;;
17864;SDS011;9058;52.018;4.202;2024-01-30T13:09:52;9.40;;;5.50;;
17864;SDS011;9058;52.018;4.202;2024-01-30T13:12:19;7.93;;;4.65;;
17864;SDS011;9058;52.018;4.202;2024-01-30T13:14:47;11.02;;;6.20;;
17864;SDS011;9058;52.018;4.202;2024-01-30T13:17:13;5.72;;;3.67;;
17864;SDS011;9058;52.018;4.202;2024-01-30T13:19:39;6.90;;;4.65;;
17864;SDS011;9058;52.018;4.202;2024-01-30T13:22:06;9.13;;;4.75;;
17864;SDS011;9058;52.018;4.202;2024-01-30T13:24:33;10.35;;;4.43;;
17864;SDS011;9058;52.018;4.202;2024-01-30T13:27:00;10.07;;;5.60;;
17864;SDS011;9058;52.018;4.202;2024-01-30T13:29:30;9.93;;;5.10;;
17864;SDS011;9058;52.018;4.202;2024-01-30T13:31:58;8.52;;;5.13;;
17864;SDS011;9058;52.018;4.202;2024-01-30T13:34:24;12.95;;;5.28;;
17864;SDS011;9058;52.018;4.202;2024-01-30T13:36:51;10.38;;;4.72;;
17864;SDS011;9058;52.018;4.202;2024-01-30T13:39:17;9.35;;;4.70;;
17864;SDS011;9058;52.018;4.202;2024-01-30T13:41:44;10.15;;;4.88;;
17864;SDS011;9058;52.018;4.202;2024-01-30T13:44:10;8.38;;;4.97;;
17864;SDS011;9058;52.018;4.202;2024-01-30T13:46:36;6.38;;;4.57;;
17864;SDS011;9058;52.018;4.202;2024-01-30T13:49:05;6.43;;;4.07;;
17864;SDS011;9058;52.018;4.202;2024-01-30T13:51:32;8.98;;;4.28;;
17864;SDS011;9058;52.018;4.202;2024-01-30T13:53:59;8.02;;;4.55;;
17864;SDS011;9058;52.018;4.202;2024-01-30T13:56:25;8.80;;;3.92;;
17864;SDS011;9058;52.018;4.202;2024-01-30T13:58:53;6.55;;;4.22;;
17864;SDS011;9058;52.018;4.202;2024-01-30T14:01:21;8.18;;;4.20;;
17864;SDS011;9058;52.018;4.202;2024-01-30T14:03:49;8.68;;;4.50;;
17864;SDS011;9058;52.018;4.202;2024-01-30T14:06:17;5.90;;;4.65;;
17864;SDS011;9058;52.018;4.202;2024-01-30T14:08:44;8.80;;;4.95;;
17864;SDS011;9058;52.018;4.202;2024-01-30T14:11:11;8.95;;;4.97;;
17864;SDS011;9058;52.018;4.202;2024-01-30T14:13:38;7.35;;;4.88;;
17864;SDS011;9058;52.018;4.202;2024-01-30T14:16:05;10.05;;;5.60;;
17864;SDS011;9058;52.018;4.202;2024-01-30T14:18:32;10.45;;;5.47;;
17864;SDS011;9058;52.018;4.202;2024-01-30T14:20:58;11.65;;;6.60;;
17864;SDS011;9058;52.018;4.202;2024-01-30T14:23:29;10.73;;;5.32;;
17864;SDS011;9058;52.018;4.202;2024-01-30T14:25:56;9.98;;;6.15;;
17864;SDS011;9058;52.018;4.202;2024-01-30T14:28:22;7.97;;;5.50;;
17864;SDS011;9058;52.018;4.202;2024-01-30T14:30:49;8.93;;;6.22;;
17864;SDS011;9058;52.018;4.202;2024-01-30T14:33:16;7.70;;;4.95;;
17864;SDS011;9058;52.018;4.202;2024-01-30T14:35:42;14.23;;;6.30;;
17864;SDS011;9058;52.018;4.202;2024-01-30T14:38:09;11.70;;;7.25;;
17864;SDS011;9058;52.018;4.202;2024-01-30T14:40:37;15.23;;;6.93;;
17864;SDS011;9058;52.018;4.202;2024-01-30T14:43:03;16.13;;;7.38;;
17864;SDS011;9058;52.018;4.202;2024-01-30T14:48:03;13.60;;;9.23;;